sensor_id;sensor_type;location;lat;lon;timestamp;pressure;altitude;pressure_sealevel;temperature;humidity
9717;BME280;4897;43.570;27.832;2023-04-30T00:02:22;98701.56;;;7.86;100.00
9717;BME280;4897;43.570;27.832;2023-04-30T00:04:48;98732.50;;;7.98;100.00
9717;BME280;4897;43.570;27.832;2023-04-30T00:07:15;98756.09;;;8.02;100.00
9717;BME280;4897;43.570;27.832;2023-04-30T00:09:42;98709.91;;;7.92;100.00
9717;BME280;4897;43.570;27.832;2023-04-30T00:12:11;98662.66;;;7.52;100.00
9717;BME280;4897;43.570;27.832;2023-04-30T00:14:38;98481.78;;;6.44;100.00
9717;BME280;4897;43.570;27.832;2023-04-30T00:17:04;98719.91;;;8.00;100.00
9717;BME280;4897;43.570;27.832;2023-04-30T00:19:31;98720.88;;;7.99;100.00
9717;BME280;4897;43.570;27.832;2023-04-30T00:21:58;98723.00;;;8.16;100.00
9717;BME280;4897;43.570;27.832;2023-04-30T00:24:26;98725.00;;;8.03;100.00
9717;BME280;4897;43.570;27.832;2023-04-30T00:26:53;98722.19;;;8.04;100.00
9717;BME280;4897;43.570;27.832;2023-04-30T00:29:24;98728.41;;;7.94;100.00
9717;BME280;4897;43.570;27.832;2023-04-30T00:31:51;98728.84;;;7.99;100.00
9717;BME280;4897;43.570;27.832;2023-04-30T00:34:18;98713.44;;;7.71;100.00
9717;BME280;4897;43.570;27.832;2023-04-30T00:36:45;98713.78;;;7.88;100.00
9717;BME280;4897;43.570;27.832;2023-04-30T00:39:12;98749.19;;;8.00;100.00
9717;BME280;4897;43.570;27.832;2023-04-30T00:41:39;98735.16;;;7.98;100.00
9717;BME280;4897;43.570;27.832;2023-04-30T00:44:06;98754.28;;;7.92;100.00
9717;BME280;4897;43.570;27.832;2023-04-30T00:46:35;98717.31;;;7.67;100.00
9717;BME280;4897;43.570;27.832;2023-04-30T00:49:02;98720.19;;;7.75;100.00
9717;BME280;4897;43.570;27.832;2023-04-30T00:51:30;98629.56;;;7.11;100.00
9717;BME280;4897;43.570;27.832;2023-04-30T00:54:00;98683.25;;;7.28;100.00
9717;BME280;4897;43.570;27.832;2023-04-30T00:56:28;98697.72;;;7.35;100.00
9717;BME280;4897;43.570;27.832;2023-04-30T00:58:55;98751.53;;;7.60;100.00
9717;BME280;4897;43.570;27.832;2023-04-30T01:01:22;98723.34;;;7.58;100.00
9717;BME280;4897;43.570;27.832;2023-04-30T01:03:51;98738.22;;;7.60;100.00
9717;BME280;4897;43.570;27.832;2023-04-30T01:06:18;98727.97;;;7.45;100.00
9717;BME280;4897;43.570;27.832;2023-04-30T01:08:45;98714.66;;;7.34;100.00
9717;BME280;4897;43.570;27.832;2023-04-30T01:11:19;98727.47;;;7.40;100.00
9717;BME280;4897;43.570;27.832;2023-04-30T01:13:57;98722.88;;;7.42;100.00
9717;BME280;4897;43.570;27.832;2023-04-30T01:16:29;98735.81;;;7.46;100.00
9717;BME280;4897;43.570;27.832;2023-04-30T01:19:04;98655.66;;;6.84;100.00
9717;BME280;4897;43.570;27.832;2023-04-30T01:21:38;98728.56;;;7.15;100.00
9717;BME280;4897;43.570;27.832;2023-04-30T01:24:23;98728.66;;;7.13;100.00
9717;BME280;4897;43.570;27.832;2023-04-30T01:27:06;98725.63;;;7.18;100.00
9717;BME280;4897;43.570;27.832;2023-04-30T01:29:42;98715.84;;;7.07;100.00
9717;BME280;4897;43.570;27.832;2023-04-30T01:32:12;98728.19;;;7.19;100.00
9717;BME280;4897;43.570;27.832;2023-04-30T01:34:39;98709.56;;;7.08;100.00
9717;BME280;4897;43.570;27.832;2023-04-30T01:37:14;98691.66;;;6.99;100.00
9717;BME280;4897;43.570;27.832;2023-04-30T01:39:52;98712.47;;;7.16;100.00
9717;BME280;4897;43.570;27.832;2023-04-30T01:42:30;98703.28;;;7.09;100.00
9717;BME280;4897;43.570;27.832;2023-04-30T01:45:11;98708.88;;;7.17;100.00
9717;BME280;4897;43.570;27.832;2023-04-30T01:47:47;98711.41;;;7.19;100.00
9717;BME280;4897;43.570;27.832;2023-04-30T01:50:22;98567.56;;;6.33;100.00
9717;BME280;4897;43.570;27.832;2023-04-30T01:52:52;98701.72;;;7.18;100.00
9717;BME280;4897;43.570;27.832;2023-04-30T01:55:27;98685.88;;;6.94;100.00
9717;BME280;4897;43.570;27.832;2023-04-30T01:57:56;98697.97;;;7.09;100.00
9717;BME280;4897;43.570;27.832;2023-04-30T02:00:26;98682.25;;;6.95;100.00
9717;BME280;4897;43.570;27.832;2023-04-30T02:02:53;98713.19;;;7.07;100.00
9717;BME280;4897;43.570;27.832;2023-04-30T02:05:20;98684.19;;;7.04;100.00
9717;BME280;4897;43.570;27.832;2023-04-30T02:07:51;98656.63;;;6.83;100.00
9717;BME280;4897;43.570;27.832;2023-04-30T02:10:19;98670.88;;;6.93;100.00
9717;BME280;4897;43.570;27.832;2023-04-30T02:12:46;98702.06;;;7.02;100.00
9717;BME280;4897;43.570;27.832;2023-04-30T02:15:13;98704.16;;;7.21;100.00
9717;BME280;4897;43.570;27.832;2023-04-30T02:17:42;98659.41;;;6.93;100.00
9717;BME280;4897;43.570;27.832;2023-04-30T02:20:09;98693.63;;;7.08;100.00
9717;BME280;4897;43.570;27.832;2023-04-30T02:22:39;98676.94;;;6.95;100.00
9717;BME280;4897;43.570;27.832;2023-04-30T02:25:09;98700.13;;;7.15;100.00
9717;BME280;4897;43.570;27.832;2023-04-30T02:27:41;98679.38;;;6.98;100.00
9717;BME280;4897;43.570;27.832;2023-04-30T02:30:11;98577.94;;;6.36;100.00
9717;BME280;4897;43.570;27.832;2023-04-30T02:32:38;98659.53;;;7.02;100.00
9717;BME280;4897;43.570;27.832;2023-04-30T02:35:07;98666.28;;;6.95;100.00
9717;BME280;4897;43.570;27.832;2023-04-30T02:37:34;98676.44;;;7.01;100.00
9717;BME280;4897;43.570;27.832;2023-04-30T02:40:01;98664.63;;;6.94;100.00
9717;BME280;4897;43.570;27.832;2023-04-30T02:42:28;98684.19;;;7.04;100.00
9717;BME280;4897;43.570;27.832;2023-04-30T02:44:55;98654.19;;;6.80;100.00
9717;BME280;4897;43.570;27.832;2023-04-30T02:47:22;98697.97;;;6.98;100.00
9717;BME280;4897;43.570;27.832;2023-04-30T02:49:49;98690.72;;;7.00;100.00
9717;BME280;4897;43.570;27.832;2023-04-30T02:52:17;98686.47;;;6.98;100.00
9717;BME280;4897;43.570;27.832;2023-04-30T02:54:44;98698.69;;;7.00;100.00
9717;BME280;4897;43.570;27.832;2023-04-30T02:57:11;98679.38;;;6.98;100.00
9717;BME280;4897;43.570;27.832;2023-04-30T02:59:38;98679.94;;;6.91;100.00
9717;BME280;4897;43.570;27.832;2023-04-30T03:02:10;98696.50;;;6.94;100.00
9717;BME280;4897;43.570;27.832;2023-04-30T03:04:37;98687.44;;;6.97;100.00
9717;BME280;4897;43.570;27.832;2023-04-30T03:07:04;98693.75;;;7.07;100.00
9717;BME280;4897;43.570;27.832;2023-04-30T03:09:33;98693.38;;;7.11;100.00
9717;BME280;4897;43.570;27.832;2023-04-30T03:12:01;98681.41;;;7.17;100.00
9717;BME280;4897;43.570;27.832;2023-04-30T03:14:28;98680.81;;;7.02;100.00
9717;BME280;4897;43.570;27.832;2023-04-30T03:16:55;98691.69;;;7.10;100.00
9717;BME280;4897;43.570;27.832;2023-04-30T03:19:22;98671.38;;;6.98;100.00
9717;BME280;4897;43.570;27.832;2023-04-30T03:21:50;98692.16;;;7.04;100.00
9717;BME280;4897;43.570;27.832;2023-04-30T03:24:17;98698.22;;;7.17;100.00
9717;BME280;4897;43.570;27.832;2023-04-30T03:26:45;98668.00;;;6.96;100.00
9717;BME280;4897;43.570;27.832;2023-04-30T03:29:13;98692.75;;;6.97;100.00
9717;BME280;4897;43.570;27.832;2023-04-30T03:31:40;98556.53;;;6.16;100.00
9717;BME280;4897;43.570;27.832;2023-04-30T03:34:07;98709.81;;;6.94;100.00
9717;BME280;4897;43.570;27.832;2023-04-30T03:36:34;98717.53;;;7.08;100.00
9717;BME280;4897;43.570;27.832;2023-04-30T03:39:01;98734.59;;;7.28;100.00
9717;BME280;4897;43.570;27.832;2023-04-30T03:41:37;98727.22;;;7.43;100.00
9717;BME280;4897;43.570;27.832;2023-04-30T03:44:05;98702.47;;;7.42;100.00
9717;BME280;4897;43.570;27.832;2023-04-30T03:46:39;98747.28;;;7.58;100.00
9717;BME280;4897;43.570;27.832;2023-04-30T03:49:06;98726.00;;;7.58;100.00
9717;BME280;4897;43.570;27.832;2023-04-30T03:51:33;98732.06;;;7.60;100.00
9717;BME280;4897;43.570;27.832;2023-04-30T03:54:04;98687.84;;;7.25;100.00
9717;BME280;4897;43.570;27.832;2023-04-30T03:56:31;98728.19;;;7.42;100.00
9717;BME280;4897;43.570;27.832;2023-04-30T03:58:58;98721.81;;;7.44;100.00
9717;BME280;4897;43.570;27.832;2023-04-30T04:01:28;98738.00;;;7.52;100.00
9717;BME280;4897;43.570;27.832;2023-04-30T04:03:55;98689.53;;;7.38;100.00
9717;BME280;4897;43.570;27.832;2023-04-30T04:06:27;98718.53;;;7.52;100.00
9717;BME280;4897;43.570;27.832;2023-04-30T04:08:54;98724.78;;;7.62;100.00
9717;BME280;4897;43.570;27.832;2023-04-30T04:11:22;98724.94;;;7.60;100.00
9717;BME280;4897;43.570;27.832;2023-04-30T04:13:49;98729.41;;;7.82;100.00
9717;BME280;4897;43.570;27.832;2023-04-30T04:16:16;98737.97;;;7.96;100.00
9717;BME280;4897;43.570;27.832;2023-04-30T04:18:44;98739.25;;;8.13;100.00
9717;BME280;4897;43.570;27.832;2023-04-30T04:21:11;98681.00;;;7.77;100.00
9717;BME280;4897;43.570;27.832;2023-04-30T04:23:38;98724.00;;;8.15;100.00
9717;BME280;4897;43.570;27.832;2023-04-30T04:26:05;98717.88;;;8.24;100.00
9717;BME280;4897;43.570;27.832;2023-04-30T04:28:32;98726.25;;;8.31;100.00
9717;BME280;4897;43.570;27.832;2023-04-30T04:30:59;98742.22;;;8.42;100.00
9717;BME280;4897;43.570;27.832;2023-04-30T04:33:28;98707.22;;;8.24;100.00
9717;BME280;4897;43.570;27.832;2023-04-30T04:35:56;98693.91;;;8.35;100.00
9717;BME280;4897;43.570;27.832;2023-04-30T04:38:24;98671.19;;;8.31;100.00
9717;BME280;4897;43.570;27.832;2023-04-30T04:40:51;98719.44;;;8.69;100.00
9717;BME280;4897;43.570;27.832;2023-04-30T04:43:18;98713.84;;;8.72;100.00
9717;BME280;4897;43.570;27.832;2023-04-30T04:45:45;98736.06;;;8.82;100.00
9717;BME280;4897;43.570;27.832;2023-04-30T04:48:12;98728.09;;;9.03;100.00
9717;BME280;4897;43.570;27.832;2023-04-30T04:50:39;98711.16;;;8.93;100.00
9717;BME280;4897;43.570;27.832;2023-04-30T04:53:08;98710.72;;;9.09;100.00
9717;BME280;4897;43.570;27.832;2023-04-30T04:55:35;98718.38;;;9.23;100.00
9717;BME280;4897;43.570;27.832;2023-04-30T04:58:02;98743.78;;;9.47;100.00
9717;BME280;4897;43.570;27.832;2023-04-30T05:00:29;98700.16;;;9.28;100.00
9717;BME280;4897;43.570;27.832;2023-04-30T05:02:58;98723.84;;;9.51;100.00
9717;BME280;4897;43.570;27.832;2023-04-30T05:05:25;98622.97;;;9.06;100.00
9717;BME280;4897;43.570;27.832;2023-04-30T05:07:52;98768.69;;;9.88;100.00
9717;BME280;4897;43.570;27.832;2023-04-30T05:10:23;98743.53;;;9.90;100.00
9717;BME280;4897;43.570;27.832;2023-04-30T05:12:49;98646.34;;;9.53;100.00
9717;BME280;4897;43.570;27.832;2023-04-30T05:15:17;98712.34;;;10.00;100.00
9717;BME280;4897;43.570;27.832;2023-04-30T05:17:44;98739.72;;;10.32;100.00
9717;BME280;4897;43.570;27.832;2023-04-30T05:20:11;98735.91;;;10.35;100.00
9717;BME280;4897;43.570;27.832;2023-04-30T05:22:38;98710.59;;;10.29;100.00
9717;BME280;4897;43.570;27.832;2023-04-30T05:25:06;98732.28;;;10.45;100.00
9717;BME280;4897;43.570;27.832;2023-04-30T05:27:34;98750.88;;;10.76;100.00
9717;BME280;4897;43.570;27.832;2023-04-30T05:30:01;98735.78;;;10.75;100.00
9717;BME280;4897;43.570;27.832;2023-04-30T05:32:28;98705.53;;;10.65;100.00
9717;BME280;4897;43.570;27.832;2023-04-30T05:34:55;98748.03;;;10.96;100.00
9717;BME280;4897;43.570;27.832;2023-04-30T05:37:22;98768.28;;;11.18;100.00
9717;BME280;4897;43.570;27.832;2023-04-30T05:39:51;98753.56;;;11.51;100.00
9717;BME280;4897;43.570;27.832;2023-04-30T05:42:18;98748.31;;;11.95;100.00
9717;BME280;4897;43.570;27.832;2023-04-30T05:44:50;98741.31;;;12.74;100.00
9717;BME280;4897;43.570;27.832;2023-04-30T05:47:17;98738.28;;;13.30;100.00
9717;BME280;4897;43.570;27.832;2023-04-30T05:49:46;98724.09;;;13.72;94.21
9717;BME280;4897;43.570;27.832;2023-04-30T05:52:13;98734.19;;;14.11;87.25
9717;BME280;4897;43.570;27.832;2023-04-30T05:54:42;98719.91;;;14.19;85.88
9717;BME280;4897;43.570;27.832;2023-04-30T05:57:09;98716.19;;;14.04;86.68
9717;BME280;4897;43.570;27.832;2023-04-30T05:59:35;98739.00;;;13.66;84.48
9717;BME280;4897;43.570;27.832;2023-04-30T06:02:04;98746.28;;;13.22;82.50
9717;BME280;4897;43.570;27.832;2023-04-30T06:04:31;98754.56;;;12.76;89.71
9717;BME280;4897;43.570;27.832;2023-04-30T06:06:58;98733.94;;;12.41;99.16
9717;BME280;4897;43.570;27.832;2023-04-30T06:09:25;98736.78;;;12.40;100.00
9717;BME280;4897;43.570;27.832;2023-04-30T06:11:52;98750.44;;;12.64;100.00
9717;BME280;4897;43.570;27.832;2023-04-30T06:14:20;98730.13;;;12.61;100.00
9717;BME280;4897;43.570;27.832;2023-04-30T06:16:48;98657.72;;;12.26;100.00
9717;BME280;4897;43.570;27.832;2023-04-30T06:19:16;98738.16;;;12.79;100.00
9717;BME280;4897;43.570;27.832;2023-04-30T06:21:43;98750.66;;;12.88;100.00
9717;BME280;4897;43.570;27.832;2023-04-30T06:24:10;98736.63;;;12.94;100.00
9717;BME280;4897;43.570;27.832;2023-04-30T06:26:37;98768.28;;;13.08;98.69
9717;BME280;4897;43.570;27.832;2023-04-30T06:29:04;98726.41;;;13.15;89.00
9717;BME280;4897;43.570;27.832;2023-04-30T06:31:34;98715.97;;;13.12;85.44
9717;BME280;4897;43.570;27.832;2023-04-30T06:34:01;98749.66;;;13.24;79.43
9717;BME280;4897;43.570;27.832;2023-04-30T06:36:29;98736.69;;;13.20;77.18
9717;BME280;4897;43.570;27.832;2023-04-30T06:39:00;98731.22;;;13.29;77.08
9717;BME280;4897;43.570;27.832;2023-04-30T06:41:27;98742.16;;;13.36;79.03
9717;BME280;4897;43.570;27.832;2023-04-30T06:43:54;98747.00;;;13.58;77.92
9717;BME280;4897;43.570;27.832;2023-04-30T06:46:21;98731.09;;;13.64;74.87
9717;BME280;4897;43.570;27.832;2023-04-30T06:48:48;98730.44;;;13.71;72.95
9717;BME280;4897;43.570;27.832;2023-04-30T06:51:15;98742.13;;;13.87;72.51
9717;BME280;4897;43.570;27.832;2023-04-30T06:53:44;98747.06;;;14.00;69.43
9717;BME280;4897;43.570;27.832;2023-04-30T06:56:11;98742.56;;;14.16;67.93
9717;BME280;4897;43.570;27.832;2023-04-30T06:58:37;98742.47;;;14.26;67.90
9717;BME280;4897;43.570;27.832;2023-04-30T07:01:04;98723.81;;;14.24;65.11
9717;BME280;4897;43.570;27.832;2023-04-30T07:03:32;98719.25;;;14.25;64.74
9717;BME280;4897;43.570;27.832;2023-04-30T07:06:00;98726.31;;;14.26;67.63
9717;BME280;4897;43.570;27.832;2023-04-30T07:08:27;98753.97;;;14.52;63.48
9717;BME280;4897;43.570;27.832;2023-04-30T07:10:55;98746.44;;;14.56;60.05
9717;BME280;4897;43.570;27.832;2023-04-30T07:13:22;98747.63;;;14.53;58.46
9717;BME280;4897;43.570;27.832;2023-04-30T07:15:50;98753.03;;;14.77;59.33
9717;BME280;4897;43.570;27.832;2023-04-30T07:18:17;98760.44;;;14.83;59.77
9717;BME280;4897;43.570;27.832;2023-04-30T07:20:44;98727.63;;;14.64;59.61
9717;BME280;4897;43.570;27.832;2023-04-30T07:23:11;98725.47;;;14.99;60.53
9717;BME280;4897;43.570;27.832;2023-04-30T07:25:40;98706.78;;;14.66;59.37
9717;BME280;4897;43.570;27.832;2023-04-30T07:28:12;98746.50;;;15.12;59.46
9717;BME280;4897;43.570;27.832;2023-04-30T07:30:39;98742.28;;;15.26;59.94
9717;BME280;4897;43.570;27.832;2023-04-30T07:33:07;98744.97;;;15.17;55.54
9717;BME280;4897;43.570;27.832;2023-04-30T07:35:34;98744.97;;;15.26;56.46
9717;BME280;4897;43.570;27.832;2023-04-30T07:38:01;98712.66;;;15.17;56.05
9717;BME280;4897;43.570;27.832;2023-04-30T07:40:29;98750.22;;;15.43;56.18
9717;BME280;4897;43.570;27.832;2023-04-30T07:42:56;98720.69;;;15.42;55.20
9717;BME280;4897;43.570;27.832;2023-04-30T07:45:24;98698.75;;;15.77;53.30
9717;BME280;4897;43.570;27.832;2023-04-30T07:47:51;98713.69;;;16.26;52.64
9717;BME280;4897;43.570;27.832;2023-04-30T07:50:18;98718.81;;;16.44;48.70
9717;BME280;4897;43.570;27.832;2023-04-30T07:52:47;98731.25;;;17.06;47.61
9717;BME280;4897;43.570;27.832;2023-04-30T07:55:14;98733.47;;;18.21;44.87
9717;BME280;4897;43.570;27.832;2023-04-30T07:57:44;98705.78;;;19.18;42.22
9717;BME280;4897;43.570;27.832;2023-04-30T08:00:14;98675.09;;;18.90;40.06
9717;BME280;4897;43.570;27.832;2023-04-30T08:02:46;98727.69;;;19.38;40.69
9717;BME280;4897;43.570;27.832;2023-04-30T08:05:14;98723.34;;;19.01;41.23
9717;BME280;4897;43.570;27.832;2023-04-30T08:07:41;98735.00;;;18.45;41.28
9717;BME280;4897;43.570;27.832;2023-04-30T08:10:09;98754.06;;;18.22;41.62
9717;BME280;4897;43.570;27.832;2023-04-30T08:12:36;98720.84;;;18.13;44.06
9717;BME280;4897;43.570;27.832;2023-04-30T08:15:04;98684.25;;;18.17;44.37
9717;BME280;4897;43.570;27.832;2023-04-30T08:17:34;98732.00;;;18.90;43.68
9717;BME280;4897;43.570;27.832;2023-04-30T08:20:03;98722.47;;;20.39;42.57
9717;BME280;4897;43.570;27.832;2023-04-30T08:22:30;98723.25;;;20.26;42.25
9717;BME280;4897;43.570;27.832;2023-04-30T08:24:58;98747.28;;;20.29;41.45
9717;BME280;4897;43.570;27.832;2023-04-30T08:27:26;98712.50;;;20.59;39.69
9717;BME280;4897;43.570;27.832;2023-04-30T08:29:53;98707.56;;;20.89;39.81
9717;BME280;4897;43.570;27.832;2023-04-30T08:32:20;98681.09;;;21.23;39.92
9717;BME280;4897;43.570;27.832;2023-04-30T08:34:47;98706.56;;;20.96;40.33
9717;BME280;4897;43.570;27.832;2023-04-30T08:37:16;98729.59;;;19.44;41.47
9717;BME280;4897;43.570;27.832;2023-04-30T08:39:43;98724.19;;;19.01;43.03
9717;BME280;4897;43.570;27.832;2023-04-30T08:42:13;98682.41;;;19.17;42.93
9717;BME280;4897;43.570;27.832;2023-04-30T08:44:40;98704.66;;;20.30;41.70
9717;BME280;4897;43.570;27.832;2023-04-30T08:47:09;98709.09;;;21.04;39.30
9717;BME280;4897;43.570;27.832;2023-04-30T08:49:37;98726.69;;;21.41;38.58
9717;BME280;4897;43.570;27.832;2023-04-30T08:52:05;98695.91;;;21.40;38.30
9717;BME280;4897;43.570;27.832;2023-04-30T08:54:34;98707.38;;;22.65;37.48
9717;BME280;4897;43.570;27.832;2023-04-30T08:57:04;98713.44;;;21.97;37.38
9717;BME280;4897;43.570;27.832;2023-04-30T08:59:32;98684.69;;;22.14;36.68
9717;BME280;4897;43.570;27.832;2023-04-30T09:01:59;98655.66;;;21.88;36.87
9717;BME280;4897;43.570;27.832;2023-04-30T09:04:26;98707.09;;;22.16;36.37
9717;BME280;4897;43.570;27.832;2023-04-30T09:06:55;98715.13;;;21.78;37.02
9717;BME280;4897;43.570;27.832;2023-04-30T09:09:27;98452.94;;;21.02;36.38
9717;BME280;4897;43.570;27.832;2023-04-30T09:12:10;98507.50;;;21.71;35.71
9717;BME280;4897;43.570;27.832;2023-04-30T09:14:39;98479.78;;;21.36;35.55
9717;BME280;4897;43.570;27.832;2023-04-30T09:17:07;98573.25;;;21.62;35.99
9717;BME280;4897;43.570;27.832;2023-04-30T09:19:34;98666.75;;;21.93;36.40
9717;BME280;4897;43.570;27.832;2023-04-30T09:22:21;98571.72;;;22.30;35.07
9717;BME280;4897;43.570;27.832;2023-04-30T09:24:49;98696.16;;;23.42;34.90
9717;BME280;4897;43.570;27.832;2023-04-30T09:27:20;98708.97;;;23.42;34.64
9717;BME280;4897;43.570;27.832;2023-04-30T09:29:47;98678.50;;;23.14;35.45
9717;BME280;4897;43.570;27.832;2023-04-30T09:32:15;98669.81;;;22.98;35.17
9717;BME280;4897;43.570;27.832;2023-04-30T09:34:42;98654.47;;;23.04;35.34
9717;BME280;4897;43.570;27.832;2023-04-30T09:37:09;98670.66;;;24.45;34.05
9717;BME280;4897;43.570;27.832;2023-04-30T09:39:46;98655.09;;;24.46;33.85
9717;BME280;4897;43.570;27.832;2023-04-30T09:42:18;98664.66;;;24.85;33.58
9717;BME280;4897;43.570;27.832;2023-04-30T09:44:46;98636.91;;;24.40;33.72
9717;BME280;4897;43.570;27.832;2023-04-30T09:47:15;98658.38;;;24.00;34.13
9717;BME280;4897;43.570;27.832;2023-04-30T09:49:42;98676.53;;;23.52;34.91
9717;BME280;4897;43.570;27.832;2023-04-30T09:52:10;98678.13;;;24.02;34.69
9717;BME280;4897;43.570;27.832;2023-04-30T09:54:42;98672.50;;;24.81;33.18
9717;BME280;4897;43.570;27.832;2023-04-30T09:57:12;98451.25;;;22.77;33.54
9717;BME280;4897;43.570;27.832;2023-04-30T09:59:43;98611.03;;;23.70;33.94
9717;BME280;4897;43.570;27.832;2023-04-30T10:02:13;98575.22;;;24.14;33.31
9717;BME280;4897;43.570;27.832;2023-04-30T10:04:42;98640.31;;;25.59;32.47
9717;BME280;4897;43.570;27.832;2023-04-30T10:07:14;98622.41;;;26.03;31.79
9717;BME280;4897;43.570;27.832;2023-04-30T10:09:48;98560.69;;;26.00;31.36
9717;BME280;4897;43.570;27.832;2023-04-30T10:12:20;98540.34;;;26.25;30.59
9717;BME280;4897;43.570;27.832;2023-04-30T10:14:52;98664.38;;;26.71;30.65
9717;BME280;4897;43.570;27.832;2023-04-30T10:17:26;98429.88;;;26.07;29.87
9717;BME280;4897;43.570;27.832;2023-04-30T10:19:57;98431.91;;;25.44;30.92
9717;BME280;4897;43.570;27.832;2023-04-30T10:22:29;98419.75;;;25.40;30.69
9717;BME280;4897;43.570;27.832;2023-04-30T10:25:00;98654.50;;;26.31;31.24
9717;BME280;4897;43.570;27.832;2023-04-30T10:27:28;98545.78;;;25.45;30.95
9717;BME280;4897;43.570;27.832;2023-04-30T10:29:57;98656.25;;;26.76;31.12
9717;BME280;4897;43.570;27.832;2023-04-30T10:32:30;98435.97;;;25.30;30.64
9717;BME280;4897;43.570;27.832;2023-04-30T10:35:09;98625.47;;;25.14;31.66
9717;BME280;4897;43.570;27.832;2023-04-30T10:37:42;98669.81;;;24.63;32.38
9717;BME280;4897;43.570;27.832;2023-04-30T10:40:15;98423.47;;;23.59;32.43
9717;BME280;4897;43.570;27.832;2023-04-30T10:42:44;98667.81;;;25.64;32.08
9717;BME280;4897;43.570;27.832;2023-04-30T10:45:15;98512.72;;;24.47;31.96
9717;BME280;4897;43.570;27.832;2023-04-30T10:47:43;98522.38;;;23.91;32.64
9717;BME280;4897;43.570;27.832;2023-04-30T10:50:11;98596.41;;;24.78;32.76
9717;BME280;4897;43.570;27.832;2023-04-30T10:52:38;98543.75;;;25.06;32.12
9717;BME280;4897;43.570;27.832;2023-04-30T10:55:07;98534.25;;;23.48;33.48
9717;BME280;4897;43.570;27.832;2023-04-30T10:57:44;98559.69;;;24.44;33.26
9717;BME280;4897;43.570;27.832;2023-04-30T11:00:24;98539.66;;;24.32;33.30
9717;BME280;4897;43.570;27.832;2023-04-30T11:02:55;98518.78;;;24.38;32.27
9717;BME280;4897;43.570;27.832;2023-04-30T11:05:34;98659.69;;;26.55;31.37
9717;BME280;4897;43.570;27.832;2023-04-30T11:08:02;98579.59;;;26.70;31.27
9717;BME280;4897;43.570;27.832;2023-04-30T11:10:35;98614.75;;;26.84;31.30
9717;BME280;4897;43.570;27.832;2023-04-30T11:13:04;98546.31;;;26.50;31.13
9717;BME280;4897;43.570;27.832;2023-04-30T11:15:39;98602.28;;;25.86;31.54
9717;BME280;4897;43.570;27.832;2023-04-30T11:18:07;98493.44;;;25.07;31.29
9717;BME280;4897;43.570;27.832;2023-04-30T11:20:38;98610.75;;;26.36;31.61
9717;BME280;4897;43.570;27.832;2023-04-30T11:23:10;98630.91;;;27.64;30.24
9717;BME280;4897;43.570;27.832;2023-04-30T11:25:42;98656.81;;;26.90;30.74
9717;BME280;4897;43.570;27.832;2023-04-30T11:28:13;98643.84;;;27.02;30.63
9717;BME280;4897;43.570;27.832;2023-04-30T11:30:51;98668.06;;;27.88;30.05
9717;BME280;4897;43.570;27.832;2023-04-30T11:33:19;98624.47;;;27.25;30.19
9717;BME280;4897;43.570;27.832;2023-04-30T11:35:47;98659.63;;;26.67;30.77
9717;BME280;4897;43.570;27.832;2023-04-30T11:38:18;98641.88;;;26.58;31.28
9717;BME280;4897;43.570;27.832;2023-04-30T11:40:48;98588.63;;;27.48;30.27
9717;BME280;4897;43.570;27.832;2023-04-30T11:43:23;98639.94;;;28.41;29.79
9717;BME280;4897;43.570;27.832;2023-04-30T11:46:03;98648.88;;;27.22;30.30
9717;BME280;4897;43.570;27.832;2023-04-30T11:48:33;98649.69;;;27.72;29.65
9717;BME280;4897;43.570;27.832;2023-04-30T11:51:13;98641.22;;;27.24;29.60
9717;BME280;4897;43.570;27.832;2023-04-30T11:53:40;98652.28;;;26.04;31.07
9717;BME280;4897;43.570;27.832;2023-04-30T11:56:11;98401.88;;;24.98;30.58
9717;BME280;4897;43.570;27.832;2023-04-30T11:58:40;98447.38;;;25.27;30.57
9717;BME280;4897;43.570;27.832;2023-04-30T12:01:10;98551.09;;;26.26;30.56
9717;BME280;4897;43.570;27.832;2023-04-30T12:03:41;98647.31;;;26.81;31.39
9717;BME280;4897;43.570;27.832;2023-04-30T12:06:10;98509.34;;;26.52;30.36
9717;BME280;4897;43.570;27.832;2023-04-30T12:08:39;98657.25;;;26.99;30.18
9717;BME280;4897;43.570;27.832;2023-04-30T12:11:18;98622.06;;;27.45;30.03
9717;BME280;4897;43.570;27.832;2023-04-30T12:13:50;98495.63;;;26.52;29.84
9717;BME280;4897;43.570;27.832;2023-04-30T12:16:18;98624.91;;;27.01;29.84
9717;BME280;4897;43.570;27.832;2023-04-30T12:18:45;98579.44;;;26.76;29.74
9717;BME280;4897;43.570;27.832;2023-04-30T12:21:14;98500.06;;;25.57;30.71
9717;BME280;4897;43.570;27.832;2023-04-30T12:23:42;98650.66;;;26.71;30.08
9717;BME280;4897;43.570;27.832;2023-04-30T12:26:09;98615.56;;;27.02;30.37
9717;BME280;4897;43.570;27.832;2023-04-30T12:28:37;98532.41;;;27.18;30.22
9717;BME280;4897;43.570;27.832;2023-04-30T12:31:04;98541.22;;;27.96;29.24
9717;BME280;4897;43.570;27.832;2023-04-30T12:33:32;98459.75;;;27.25;29.27
9717;BME280;4897;43.570;27.832;2023-04-30T12:36:03;98501.25;;;27.45;29.43
9717;BME280;4897;43.570;27.832;2023-04-30T12:38:32;98637.88;;;27.72;29.83
9717;BME280;4897;43.570;27.832;2023-04-30T12:41:04;98513.19;;;26.68;29.96
9717;BME280;4897;43.570;27.832;2023-04-30T12:43:34;98646.34;;;27.87;29.75
9717;BME280;4897;43.570;27.832;2023-04-30T12:46:05;98642.94;;;27.13;30.42
9717;BME280;4897;43.570;27.832;2023-04-30T12:48:42;98405.53;;;24.69;32.01
9717;BME280;4897;43.570;27.832;2023-04-30T12:51:11;98621.44;;;27.38;30.31
9717;BME280;4897;43.570;27.832;2023-04-30T12:53:46;98636.69;;;27.84;29.91
9717;BME280;4897;43.570;27.832;2023-04-30T12:56:17;98530.97;;;27.48;29.96
9717;BME280;4897;43.570;27.832;2023-04-30T12:58:49;98515.13;;;28.20;29.17
9717;BME280;4897;43.570;27.832;2023-04-30T13:01:17;98630.09;;;28.93;29.05
9717;BME280;4897;43.570;27.832;2023-04-30T13:03:51;98433.88;;;26.17;30.63
9717;BME280;4897;43.570;27.832;2023-04-30T13:06:20;98568.09;;;27.34;29.98
9717;BME280;4897;43.570;27.832;2023-04-30T13:08:47;98564.19;;;26.97;30.17
9717;BME280;4897;43.570;27.832;2023-04-30T13:11:14;98429.81;;;26.69;30.01
9717;BME280;4897;43.570;27.832;2023-04-30T13:13:42;98626.31;;;28.51;29.89
9717;BME280;4897;43.570;27.832;2023-04-30T13:16:10;98631.81;;;29.31;29.01
9717;BME280;4897;43.570;27.832;2023-04-30T13:18:38;98406.09;;;28.68;28.49
9717;BME280;4897;43.570;27.832;2023-04-30T13:21:09;98418.56;;;27.90;28.60